Terminal Aerodrome Forecast
Issued by NWS

Home | Current Version | Previous Version | Text Only | Print | Product List | Glossary On
Versions: 1 2 3 4 5 6 7 8 9 10 11 12 13 14
000
FTUS42 TJSJ 211900 AAA
TAFJMZ
TAF AMD
TJMZ 211907Z 2119/2218 29010KT P6SM VCSH SCT025
      TEMPO 2119/2121 3SM TSRA BKN030CB
     FM212330 09006KT P6SM SCT030
     FM221530 27010KT P6SM SCT025 BKN040
      AMD NOT SKED=

USA.gov is the U.S. government's official web portal to all federal, state and local government web resources and services.